sensor_id;sensor_type;location;lat;lon;timestamp;P1;durP1;ratioP1;P2;durP2;ratioP2
29958;SDS011;16815;51.100;6.516;2022-09-09T00:00:22;1.80;;;1.00;;
29958;SDS011;16815;51.100;6.516;2022-09-09T00:02:58;2.57;;;1.27;;
29958;SDS011;16815;51.100;6.516;2022-09-09T00:07:54;1.57;;;1.00;;
29958;SDS011;16815;51.100;6.516;2022-09-09T00:12:52;2.27;;;0.90;;
29958;SDS011;16815;51.100;6.516;2022-09-09T00:15:22;4.47;;;1.33;;
29958;SDS011;16815;51.100;6.516;2022-09-09T00:20:20;5.23;;;1.50;;
29958;SDS011;16815;51.100;6.516;2022-09-09T00:23:00;7.37;;;1.40;;
29958;SDS011;16815;51.100;6.516;2022-09-09T00:27:54;7.30;;;2.10;;
29958;SDS011;16815;51.100;6.516;2022-09-09T00:30:23;7.17;;;1.90;;
29958;SDS011;16815;51.100;6.516;2022-09-09T00:32:53;10.47;;;2.00;;
29958;SDS011;16815;51.100;6.516;2022-09-09T00:35:42;7.73;;;1.90;;
29958;SDS011;16815;51.100;6.516;2022-09-09T00:38:13;11.93;;;2.07;;
29958;SDS011;16815;51.100;6.516;2022-09-09T00:40:41;15.20;;;2.53;;
29958;SDS011;16815;51.100;6.516;2022-09-09T00:46:17;8.60;;;1.70;;
29958;SDS011;16815;51.100;6.516;2022-09-09T00:48:54;14.77;;;2.00;;
29958;SDS011;16815;51.100;6.516;2022-09-09T00:54:51;5.23;;;1.77;;
29958;SDS011;16815;51.100;6.516;2022-09-09T00:57:39;5.67;;;1.60;;
29958;SDS011;16815;51.100;6.516;2022-09-09T00:59:51;3.47;;;1.43;;
29958;SDS011;16815;51.100;6.516;2022-09-09T01:02:28;8.90;;;2.20;;
29958;SDS011;16815;51.100;6.516;2022-09-09T01:04:56;6.77;;;1.53;;
29958;SDS011;16815;51.100;6.516;2022-09-09T01:07:26;6.43;;;1.60;;
29958;SDS011;16815;51.100;6.516;2022-09-09T01:09:59;6.20;;;1.20;;
29958;SDS011;16815;51.100;6.516;2022-09-09T01:12:41;5.10;;;1.20;;
29958;SDS011;16815;51.100;6.516;2022-09-09T01:17:46;5.50;;;1.70;;
29958;SDS011;16815;51.100;6.516;2022-09-09T01:20:18;8.00;;;1.47;;
29958;SDS011;16815;51.100;6.516;2022-09-09T01:28:19;9.83;;;1.67;;
29958;SDS011;16815;51.100;6.516;2022-09-09T01:30:47;5.87;;;1.60;;
29958;SDS011;16815;51.100;6.516;2022-09-09T01:33:16;3.20;;;1.30;;
29958;SDS011;16815;51.100;6.516;2022-09-09T01:38:11;2.53;;;1.30;;
29958;SDS011;16815;51.100;6.516;2022-09-09T01:40:37;5.63;;;1.30;;
29958;SDS011;16815;51.100;6.516;2022-09-09T01:43:04;9.07;;;1.50;;
29958;SDS011;16815;51.100;6.516;2022-09-09T01:45:31;5.13;;;1.77;;
29958;SDS011;16815;51.100;6.516;2022-09-09T01:47:57;9.57;;;1.97;;
29958;SDS011;16815;51.100;6.516;2022-09-09T01:50:23;8.40;;;1.40;;
29958;SDS011;16815;51.100;6.516;2022-09-09T01:52:50;6.07;;;1.47;;
29958;SDS011;16815;51.100;6.516;2022-09-09T01:55:17;4.03;;;1.47;;
29958;SDS011;16815;51.100;6.516;2022-09-09T02:00:24;9.80;;;1.53;;
29958;SDS011;16815;51.100;6.516;2022-09-09T02:03:07;6.83;;;1.50;;
29958;SDS011;16815;51.100;6.516;2022-09-09T02:05:41;5.27;;;1.80;;
29958;SDS011;16815;51.100;6.516;2022-09-09T02:08:11;5.60;;;1.47;;
29958;SDS011;16815;51.100;6.516;2022-09-09T02:13:25;4.97;;;1.60;;
29958;SDS011;16815;51.100;6.516;2022-09-09T02:16:03;3.67;;;1.60;;
29958;SDS011;16815;51.100;6.516;2022-09-09T02:18:34;5.40;;;1.20;;
29958;SDS011;16815;51.100;6.516;2022-09-09T02:21:01;4.83;;;1.53;;
29958;SDS011;16815;51.100;6.516;2022-09-09T02:23:28;4.93;;;1.53;;
29958;SDS011;16815;51.100;6.516;2022-09-09T02:25:54;3.47;;;1.30;;
29958;SDS011;16815;51.100;6.516;2022-09-09T02:28:21;3.10;;;1.30;;
29958;SDS011;16815;51.100;6.516;2022-09-09T02:30:50;7.20;;;1.63;;
29958;SDS011;16815;51.100;6.516;2022-09-09T02:33:20;8.57;;;1.43;;
29958;SDS011;16815;51.100;6.516;2022-09-09T02:35:47;3.07;;;1.50;;
29958;SDS011;16815;51.100;6.516;2022-09-09T02:38:15;6.27;;;1.70;;
29958;SDS011;16815;51.100;6.516;2022-09-09T02:40:41;5.83;;;1.20;;
29958;SDS011;16815;51.100;6.516;2022-09-09T02:43:07;6.97;;;1.50;;
29958;SDS011;16815;51.100;6.516;2022-09-09T02:45:58;5.37;;;1.40;;
29958;SDS011;16815;51.100;6.516;2022-09-09T02:48:28;2.67;;;1.60;;
29958;SDS011;16815;51.100;6.516;2022-09-09T02:53:39;5.37;;;1.67;;
29958;SDS011;16815;51.100;6.516;2022-09-09T02:56:08;4.93;;;1.40;;
29958;SDS011;16815;51.100;6.516;2022-09-09T02:58:36;5.20;;;2.07;;
29958;SDS011;16815;51.100;6.516;2022-09-09T03:01:02;6.53;;;1.97;;
29958;SDS011;16815;51.100;6.516;2022-09-09T03:03:28;8.43;;;1.73;;
29958;SDS011;16815;51.100;6.516;2022-09-09T03:05:55;5.70;;;1.70;;
29958;SDS011;16815;51.100;6.516;2022-09-09T03:08:21;8.37;;;1.90;;
29958;SDS011;16815;51.100;6.516;2022-09-09T03:10:48;6.47;;;1.60;;
29958;SDS011;16815;51.100;6.516;2022-09-09T03:13:14;6.70;;;1.80;;
29958;SDS011;16815;51.100;6.516;2022-09-09T03:15:40;6.27;;;1.40;;
29958;SDS011;16815;51.100;6.516;2022-09-09T03:18:06;6.63;;;1.70;;
29958;SDS011;16815;51.100;6.516;2022-09-09T03:20:32;5.10;;;1.53;;
29958;SDS011;16815;51.100;6.516;2022-09-09T03:22:59;4.87;;;1.60;;
29958;SDS011;16815;51.100;6.516;2022-09-09T03:25:25;4.63;;;1.90;;
29958;SDS011;16815;51.100;6.516;2022-09-09T03:27:51;5.60;;;1.80;;
29958;SDS011;16815;51.100;6.516;2022-09-09T03:30:19;3.73;;;1.50;;
29958;SDS011;16815;51.100;6.516;2022-09-09T03:32:45;8.40;;;1.97;;
29958;SDS011;16815;51.100;6.516;2022-09-09T03:35:11;6.27;;;1.73;;
29958;SDS011;16815;51.100;6.516;2022-09-09T03:37:37;4.37;;;1.70;;
29958;SDS011;16815;51.100;6.516;2022-09-09T03:40:03;3.43;;;1.63;;
29958;SDS011;16815;51.100;6.516;2022-09-09T03:42:31;6.23;;;1.77;;
29958;SDS011;16815;51.100;6.516;2022-09-09T03:44:56;6.27;;;1.57;;
29958;SDS011;16815;51.100;6.516;2022-09-09T03:47:24;5.73;;;1.67;;
29958;SDS011;16815;51.100;6.516;2022-09-09T03:49:50;5.50;;;2.23;;
29958;SDS011;16815;51.100;6.516;2022-09-09T03:52:16;5.67;;;1.50;;
29958;SDS011;16815;51.100;6.516;2022-09-09T03:54:43;7.10;;;1.90;;
29958;SDS011;16815;51.100;6.516;2022-09-09T03:57:09;5.10;;;1.93;;
29958;SDS011;16815;51.100;6.516;2022-09-09T03:59:35;2.67;;;1.50;;
29958;SDS011;16815;51.100;6.516;2022-09-09T04:02:01;7.07;;;1.93;;
29958;SDS011;16815;51.100;6.516;2022-09-09T04:04:27;4.90;;;1.53;;
29958;SDS011;16815;51.100;6.516;2022-09-09T04:06:53;4.93;;;1.90;;
29958;SDS011;16815;51.100;6.516;2022-09-09T04:09:19;3.30;;;1.70;;
29958;SDS011;16815;51.100;6.516;2022-09-09T04:11:45;4.33;;;1.40;;
29958;SDS011;16815;51.100;6.516;2022-09-09T04:14:11;6.53;;;2.13;;
29958;SDS011;16815;51.100;6.516;2022-09-09T04:16:38;5.67;;;1.53;;
29958;SDS011;16815;51.100;6.516;2022-09-09T04:19:04;7.73;;;1.80;;
29958;SDS011;16815;51.100;6.516;2022-09-09T04:21:32;11.47;;;2.67;;
29958;SDS011;16815;51.100;6.516;2022-09-09T04:23:58;8.70;;;2.37;;
29958;SDS011;16815;51.100;6.516;2022-09-09T04:26:24;4.40;;;1.53;;
29958;SDS011;16815;51.100;6.516;2022-09-09T04:28:50;8.10;;;2.80;;
29958;SDS011;16815;51.100;6.516;2022-09-09T04:31:18;5.50;;;1.77;;
29958;SDS011;16815;51.100;6.516;2022-09-09T04:33:45;9.33;;;2.40;;
29958;SDS011;16815;51.100;6.516;2022-09-09T04:36:11;3.53;;;1.83;;
29958;SDS011;16815;51.100;6.516;2022-09-09T04:38:37;4.57;;;1.70;;
29958;SDS011;16815;51.100;6.516;2022-09-09T04:41:03;5.00;;;1.73;;
29958;SDS011;16815;51.100;6.516;2022-09-09T04:43:29;7.50;;;1.90;;
29958;SDS011;16815;51.100;6.516;2022-09-09T04:45:56;8.90;;;2.20;;
29958;SDS011;16815;51.100;6.516;2022-09-09T04:48:22;3.70;;;1.70;;
29958;SDS011;16815;51.100;6.516;2022-09-09T04:50:59;5.10;;;1.90;;
29958;SDS011;16815;51.100;6.516;2022-09-09T04:53:26;5.43;;;1.90;;
29958;SDS011;16815;51.100;6.516;2022-09-09T04:55:52;7.20;;;2.40;;
29958;SDS011;16815;51.100;6.516;2022-09-09T04:58:19;5.17;;;1.77;;
29958;SDS011;16815;51.100;6.516;2022-09-09T05:00:47;5.07;;;1.97;;
29958;SDS011;16815;51.100;6.516;2022-09-09T05:03:13;7.00;;;2.10;;
29958;SDS011;16815;51.100;6.516;2022-09-09T05:05:39;7.67;;;2.10;;
29958;SDS011;16815;51.100;6.516;2022-09-09T05:08:06;4.63;;;1.80;;
29958;SDS011;16815;51.100;6.516;2022-09-09T05:10:33;3.70;;;1.93;;
29958;SDS011;16815;51.100;6.516;2022-09-09T05:12:59;7.07;;;2.00;;
29958;SDS011;16815;51.100;6.516;2022-09-09T05:15:25;4.77;;;1.63;;
29958;SDS011;16815;51.100;6.516;2022-09-09T05:17:51;6.80;;;2.23;;
29958;SDS011;16815;51.100;6.516;2022-09-09T05:20:18;7.40;;;2.10;;
29958;SDS011;16815;51.100;6.516;2022-09-09T05:22:44;5.07;;;1.80;;
29958;SDS011;16815;51.100;6.516;2022-09-09T05:25:09;4.83;;;1.67;;
29958;SDS011;16815;51.100;6.516;2022-09-09T05:27:35;7.63;;;1.90;;
29958;SDS011;16815;51.100;6.516;2022-09-09T05:30:02;3.50;;;1.97;;
29958;SDS011;16815;51.100;6.516;2022-09-09T05:32:29;5.67;;;1.80;;
29958;SDS011;16815;51.100;6.516;2022-09-09T05:34:59;6.73;;;1.73;;
29958;SDS011;16815;51.100;6.516;2022-09-09T05:37:25;6.40;;;1.53;;
29958;SDS011;16815;51.100;6.516;2022-09-09T05:39:51;7.20;;;2.20;;
29958;SDS011;16815;51.100;6.516;2022-09-09T05:42:18;8.93;;;2.77;;
29958;SDS011;16815;51.100;6.516;2022-09-09T05:44:44;5.57;;;2.10;;
29958;SDS011;16815;51.100;6.516;2022-09-09T05:47:10;5.97;;;2.00;;
29958;SDS011;16815;51.100;6.516;2022-09-09T05:49:36;7.03;;;2.17;;
29958;SDS011;16815;51.100;6.516;2022-09-09T05:52:02;8.53;;;2.20;;
29958;SDS011;16815;51.100;6.516;2022-09-09T05:54:28;7.10;;;2.27;;
29958;SDS011;16815;51.100;6.516;2022-09-09T05:56:54;6.70;;;1.73;;
29958;SDS011;16815;51.100;6.516;2022-09-09T05:59:20;3.97;;;1.83;;
29958;SDS011;16815;51.100;6.516;2022-09-09T06:01:48;5.53;;;2.07;;
29958;SDS011;16815;51.100;6.516;2022-09-09T06:04:14;5.87;;;1.50;;
29958;SDS011;16815;51.100;6.516;2022-09-09T06:06:40;4.63;;;1.90;;
29958;SDS011;16815;51.100;6.516;2022-09-09T06:09:07;7.00;;;2.00;;
29958;SDS011;16815;51.100;6.516;2022-09-09T06:11:35;4.20;;;2.07;;
29958;SDS011;16815;51.100;6.516;2022-09-09T06:14:01;5.60;;;1.83;;
29958;SDS011;16815;51.100;6.516;2022-09-09T06:16:28;5.63;;;1.50;;
29958;SDS011;16815;51.100;6.516;2022-09-09T06:18:54;6.17;;;1.60;;
29958;SDS011;16815;51.100;6.516;2022-09-09T06:21:25;2.47;;;1.40;;
29958;SDS011;16815;51.100;6.516;2022-09-09T06:23:51;6.20;;;1.80;;
29958;SDS011;16815;51.100;6.516;2022-09-09T06:26:21;7.07;;;1.43;;
29958;SDS011;16815;51.100;6.516;2022-09-09T06:28:49;6.17;;;1.83;;
29958;SDS011;16815;51.100;6.516;2022-09-09T06:31:17;4.20;;;1.83;;
29958;SDS011;16815;51.100;6.516;2022-09-09T06:33:46;6.80;;;1.73;;
29958;SDS011;16815;51.100;6.516;2022-09-09T06:36:13;5.87;;;1.70;;
29958;SDS011;16815;51.100;6.516;2022-09-09T06:38:39;6.43;;;1.60;;
29958;SDS011;16815;51.100;6.516;2022-09-09T06:41:05;5.73;;;1.60;;
29958;SDS011;16815;51.100;6.516;2022-09-09T06:43:32;6.20;;;2.47;;
29958;SDS011;16815;51.100;6.516;2022-09-09T06:46:02;4.57;;;1.37;;
29958;SDS011;16815;51.100;6.516;2022-09-09T06:48:28;4.50;;;1.50;;
29958;SDS011;16815;51.100;6.516;2022-09-09T06:51:04;7.20;;;1.40;;
29958;SDS011;16815;51.100;6.516;2022-09-09T06:53:31;6.23;;;1.77;;
29958;SDS011;16815;51.100;6.516;2022-09-09T06:56:01;7.17;;;1.67;;
29958;SDS011;16815;51.100;6.516;2022-09-09T06:58:27;4.67;;;1.63;;
29958;SDS011;16815;51.100;6.516;2022-09-09T07:01:00;5.27;;;1.43;;
29958;SDS011;16815;51.100;6.516;2022-09-09T07:03:26;2.97;;;1.50;;
29958;SDS011;16815;51.100;6.516;2022-09-09T07:05:56;5.87;;;1.60;;
29958;SDS011;16815;51.100;6.516;2022-09-09T07:08:22;4.70;;;2.00;;
29958;SDS011;16815;51.100;6.516;2022-09-09T07:10:49;5.17;;;1.70;;
29958;SDS011;16815;51.100;6.516;2022-09-09T07:13:16;7.07;;;1.77;;
29958;SDS011;16815;51.100;6.516;2022-09-09T07:15:45;5.40;;;1.80;;
29958;SDS011;16815;51.100;6.516;2022-09-09T07:18:11;5.57;;;1.43;;
29958;SDS011;16815;51.100;6.516;2022-09-09T07:20:37;9.67;;;2.20;;
29958;SDS011;16815;51.100;6.516;2022-09-09T07:23:03;5.23;;;1.80;;
29958;SDS011;16815;51.100;6.516;2022-09-09T07:25:29;6.27;;;1.50;;
29958;SDS011;16815;51.100;6.516;2022-09-09T07:27:55;5.47;;;1.60;;
29958;SDS011;16815;51.100;6.516;2022-09-09T07:30:21;6.57;;;1.60;;
29958;SDS011;16815;51.100;6.516;2022-09-09T07:32:47;4.33;;;1.50;;
29958;SDS011;16815;51.100;6.516;2022-09-09T07:35:13;8.93;;;2.10;;
29958;SDS011;16815;51.100;6.516;2022-09-09T07:37:39;3.87;;;1.80;;
29958;SDS011;16815;51.100;6.516;2022-09-09T07:40:06;5.07;;;2.17;;
29958;SDS011;16815;51.100;6.516;2022-09-09T07:42:32;4.20;;;1.47;;
29958;SDS011;16815;51.100;6.516;2022-09-09T07:44:58;7.37;;;1.83;;
29958;SDS011;16815;51.100;6.516;2022-09-09T07:47:24;4.20;;;1.60;;
29958;SDS011;16815;51.100;6.516;2022-09-09T07:49:50;6.73;;;1.87;;
29958;SDS011;16815;51.100;6.516;2022-09-09T07:52:16;5.47;;;1.80;;
29958;SDS011;16815;51.100;6.516;2022-09-09T07:54:42;7.40;;;1.87;;
29958;SDS011;16815;51.100;6.516;2022-09-09T07:57:08;4.37;;;1.33;;
29958;SDS011;16815;51.100;6.516;2022-09-09T07:59:34;5.93;;;1.90;;
29958;SDS011;16815;51.100;6.516;2022-09-09T08:02:00;6.17;;;1.47;;
29958;SDS011;16815;51.100;6.516;2022-09-09T08:04:26;6.53;;;1.93;;
29958;SDS011;16815;51.100;6.516;2022-09-09T08:06:54;5.63;;;1.60;;
29958;SDS011;16815;51.100;6.516;2022-09-09T08:09:20;5.73;;;1.47;;
29958;SDS011;16815;51.100;6.516;2022-09-09T08:11:49;4.63;;;1.60;;
29958;SDS011;16815;51.100;6.516;2022-09-09T08:14:15;3.53;;;1.53;;
29958;SDS011;16815;51.100;6.516;2022-09-09T08:16:43;5.27;;;1.87;;
29958;SDS011;16815;51.100;6.516;2022-09-09T08:19:10;8.33;;;1.60;;
29958;SDS011;16815;51.100;6.516;2022-09-09T08:21:36;4.60;;;1.67;;
29958;SDS011;16815;51.100;6.516;2022-09-09T08:24:03;8.80;;;1.70;;
29958;SDS011;16815;51.100;6.516;2022-09-09T08:26:34;7.20;;;1.67;;
29958;SDS011;16815;51.100;6.516;2022-09-09T08:29:00;8.80;;;1.70;;
29958;SDS011;16815;51.100;6.516;2022-09-09T08:31:28;6.67;;;1.77;;
29958;SDS011;16815;51.100;6.516;2022-09-09T08:33:55;4.17;;;1.70;;
29958;SDS011;16815;51.100;6.516;2022-09-09T08:36:22;5.73;;;1.50;;
29958;SDS011;16815;51.100;6.516;2022-09-09T08:38:49;6.43;;;1.50;;
29958;SDS011;16815;51.100;6.516;2022-09-09T08:41:30;9.03;;;2.20;;
29958;SDS011;16815;51.100;6.516;2022-09-09T08:44:07;6.30;;;1.90;;
29958;SDS011;16815;51.100;6.516;2022-09-09T08:46:38;7.23;;;2.37;;
29958;SDS011;16815;51.100;6.516;2022-09-09T08:51:53;6.43;;;1.47;;
29958;SDS011;16815;51.100;6.516;2022-09-09T08:54:20;7.43;;;1.80;;
29958;SDS011;16815;51.100;6.516;2022-09-09T08:56:46;6.40;;;1.80;;
29958;SDS011;16815;51.100;6.516;2022-09-09T08:59:12;3.13;;;1.20;;
29958;SDS011;16815;51.100;6.516;2022-09-09T09:12:08;2.93;;;1.10;;
29958;SDS011;16815;51.100;6.516;2022-09-09T09:14:39;4.73;;;1.20;;
29958;SDS011;16815;51.100;6.516;2022-09-09T09:17:06;3.67;;;1.10;;
29958;SDS011;16815;51.100;6.516;2022-09-09T09:19:35;2.60;;;1.30;;
29958;SDS011;16815;51.100;6.516;2022-09-09T09:22:20;5.13;;;1.17;;
29958;SDS011;16815;51.100;6.516;2022-09-09T09:24:58;4.33;;;1.37;;
29958;SDS011;16815;51.100;6.516;2022-09-09T09:29:56;2.27;;;1.13;;
29958;SDS011;16815;51.100;6.516;2022-09-09T09:32:23;3.87;;;1.03;;
29958;SDS011;16815;51.100;6.516;2022-09-09T09:34:54;6.23;;;1.37;;
29958;SDS011;16815;51.100;6.516;2022-09-09T09:37:32;3.93;;;1.50;;
29958;SDS011;16815;51.100;6.516;2022-09-09T09:40:13;3.50;;;1.43;;
29958;SDS011;16815;51.100;6.516;2022-09-09T09:42:53;3.23;;;1.03;;
29958;SDS011;16815;51.100;6.516;2022-09-09T09:45:32;3.13;;;1.20;;
29958;SDS011;16815;51.100;6.516;2022-09-09T09:47:59;3.43;;;1.17;;
29958;SDS011;16815;51.100;6.516;2022-09-09T09:50:27;7.80;;;1.30;;
29958;SDS011;16815;51.100;6.516;2022-09-09T09:52:53;4.27;;;1.30;;
29958;SDS011;16815;51.100;6.516;2022-09-09T09:55:20;4.87;;;1.00;;
29958;SDS011;16815;51.100;6.516;2022-09-09T09:57:47;4.87;;;1.60;;
29958;SDS011;16815;51.100;6.516;2022-09-09T10:00:14;2.47;;;1.00;;
29958;SDS011;16815;51.100;6.516;2022-09-09T10:02:42;3.30;;;1.20;;
29958;SDS011;16815;51.100;6.516;2022-09-09T10:07:35;1.70;;;1.00;;
29958;SDS011;16815;51.100;6.516;2022-09-09T10:10:02;3.93;;;1.30;;
29958;SDS011;16815;51.100;6.516;2022-09-09T10:18:05;5.00;;;1.10;;
29958;SDS011;16815;51.100;6.516;2022-09-09T10:23:11;2.83;;;0.90;;
29958;SDS011;16815;51.100;6.516;2022-09-09T10:28:11;3.53;;;1.20;;
29958;SDS011;16815;51.100;6.516;2022-09-09T10:33:30;6.27;;;1.10;;
29958;SDS011;16815;51.100;6.516;2022-09-09T10:36:16;6.40;;;1.17;;
29958;SDS011;16815;51.100;6.516;2022-09-09T10:38:46;4.30;;;1.20;;
29958;SDS011;16815;51.100;6.516;2022-09-09T10:41:18;3.27;;;0.93;;
29958;SDS011;16815;51.100;6.516;2022-09-09T10:49:07;2.00;;;0.83;;
29958;SDS011;16815;51.100;6.516;2022-09-09T10:51:43;5.67;;;0.90;;
29958;SDS011;16815;51.100;6.516;2022-09-09T10:56:36;4.10;;;1.23;;
29958;SDS011;16815;51.100;6.516;2022-09-09T11:01:36;3.23;;;0.90;;
29958;SDS011;16815;51.100;6.516;2022-09-09T11:04:09;5.57;;;1.00;;
29958;SDS011;16815;51.100;6.516;2022-09-09T11:06:37;2.97;;;0.90;;
29958;SDS011;16815;51.100;6.516;2022-09-09T11:09:05;3.90;;;0.90;;
29958;SDS011;16815;51.100;6.516;2022-09-09T11:11:34;4.37;;;1.10;;
29958;SDS011;16815;51.100;6.516;2022-09-09T11:14:04;1.83;;;0.80;;
29958;SDS011;16815;51.100;6.516;2022-09-09T11:16:41;4.33;;;1.40;;
29958;SDS011;16815;51.100;6.516;2022-09-09T11:19:19;3.37;;;1.23;;
29958;SDS011;16815;51.100;6.516;2022-09-09T11:21:49;2.47;;;0.80;;
29958;SDS011;16815;51.100;6.516;2022-09-09T11:24:19;1.43;;;0.70;;
29958;SDS011;16815;51.100;6.516;2022-09-09T11:26:49;2.60;;;1.10;;
29958;SDS011;16815;51.100;6.516;2022-09-09T11:29:36;2.80;;;1.10;;
29958;SDS011;16815;51.100;6.516;2022-09-09T11:32:21;3.20;;;1.10;;
29958;SDS011;16815;51.100;6.516;2022-09-09T11:40:14;3.57;;;1.20;;
29958;SDS011;16815;51.100;6.516;2022-09-09T11:42:42;2.77;;;1.40;;
29958;SDS011;16815;51.100;6.516;2022-09-09T11:45:09;2.97;;;0.87;;
29958;SDS011;16815;51.100;6.516;2022-09-09T11:47:36;1.77;;;0.70;;
29958;SDS011;16815;51.100;6.516;2022-09-09T11:50:09;2.17;;;1.00;;
29958;SDS011;16815;51.100;6.516;2022-09-09T11:52:36;2.10;;;0.93;;
29958;SDS011;16815;51.100;6.516;2022-09-09T11:55:36;3.85;;;1.20;;
29958;SDS011;16815;51.100;6.516;2022-09-09T12:00:30;4.00;;;1.10;;
29958;SDS011;16815;51.100;6.516;2022-09-09T12:02:58;1.83;;;0.80;;
29958;SDS011;16815;51.100;6.516;2022-09-09T12:05:24;6.30;;;1.30;;
29958;SDS011;16815;51.100;6.516;2022-09-09T12:08:01;4.13;;;1.10;;
29958;SDS011;16815;51.100;6.516;2022-09-09T12:10:32;3.20;;;1.13;;
29958;SDS011;16815;51.100;6.516;2022-09-09T12:15:56;6.17;;;1.00;;
29958;SDS011;16815;51.100;6.516;2022-09-09T12:18:24;10.17;;;1.30;;
29958;SDS011;16815;51.100;6.516;2022-09-09T12:23:36;8.57;;;1.57;;
29958;SDS011;16815;51.100;6.516;2022-09-09T12:26:07;7.40;;;1.20;;
29958;SDS011;16815;51.100;6.516;2022-09-09T12:33:43;4.67;;;1.10;;
29958;SDS011;16815;51.100;6.516;2022-09-09T12:36:16;3.63;;;1.00;;
29958;SDS011;16815;51.100;6.516;2022-09-09T12:38:44;3.10;;;0.90;;
29958;SDS011;16815;51.100;6.516;2022-09-09T12:41:18;5.47;;;1.50;;
29958;SDS011;16815;51.100;6.516;2022-09-09T12:43:44;3.80;;;1.00;;
29958;SDS011;16815;51.100;6.516;2022-09-09T12:46:12;5.80;;;1.10;;
29958;SDS011;16815;51.100;6.516;2022-09-09T12:48:41;5.63;;;1.10;;
29958;SDS011;16815;51.100;6.516;2022-09-09T12:51:17;2.73;;;0.97;;
29958;SDS011;16815;51.100;6.516;2022-09-09T12:53:43;3.00;;;0.87;;
29958;SDS011;16815;51.100;6.516;2022-09-09T12:56:17;2.37;;;1.00;;
29958;SDS011;16815;51.100;6.516;2022-09-09T12:58:45;5.47;;;1.07;;
29958;SDS011;16815;51.100;6.516;2022-09-09T13:01:18;7.57;;;1.10;;
29958;SDS011;16815;51.100;6.516;2022-09-09T13:03:46;5.20;;;1.10;;
29958;SDS011;16815;51.100;6.516;2022-09-09T13:06:13;2.70;;;0.90;;
29958;SDS011;16815;51.100;6.516;2022-09-09T13:08:39;4.60;;;1.57;;
29958;SDS011;16815;51.100;6.516;2022-09-09T13:11:16;3.10;;;1.10;;
29958;SDS011;16815;51.100;6.516;2022-09-09T13:13:43;4.30;;;1.60;;
29958;SDS011;16815;51.100;6.516;2022-09-09T13:18:51;2.13;;;1.00;;
29958;SDS011;16815;51.100;6.516;2022-09-09T13:21:17;3.80;;;1.53;;
29958;SDS011;16815;51.100;6.516;2022-09-09T13:23:47;3.43;;;1.23;;
29958;SDS011;16815;51.100;6.516;2022-09-09T13:26:24;2.80;;;1.13;;
29958;SDS011;16815;51.100;6.516;2022-09-09T13:28:50;5.20;;;1.43;;
29958;SDS011;16815;51.100;6.516;2022-09-09T13:33:50;4.20;;;1.00;;
29958;SDS011;16815;51.100;6.516;2022-09-09T13:36:18;3.80;;;1.13;;
29958;SDS011;16815;51.100;6.516;2022-09-09T13:38:53;3.63;;;1.37;;
29958;SDS011;16815;51.100;6.516;2022-09-09T13:41:29;3.57;;;1.23;;
29958;SDS011;16815;51.100;6.516;2022-09-09T13:43:55;2.63;;;1.00;;
29958;SDS011;16815;51.100;6.516;2022-09-09T13:46:31;3.40;;;1.30;;
29958;SDS011;16815;51.100;6.516;2022-09-09T13:49:01;1.50;;;1.00;;
29958;SDS011;16815;51.100;6.516;2022-09-09T13:51:38;2.40;;;1.00;;
29958;SDS011;16815;51.100;6.516;2022-09-09T13:54:05;3.47;;;1.50;;
29958;SDS011;16815;51.100;6.516;2022-09-09T13:56:35;3.50;;;1.00;;
29958;SDS011;16815;51.100;6.516;2022-09-09T13:59:02;5.80;;;1.13;;
29958;SDS011;16815;51.100;6.516;2022-09-09T14:01:28;2.17;;;0.93;;
29958;SDS011;16815;51.100;6.516;2022-09-09T14:03:54;3.23;;;1.10;;
29958;SDS011;16815;51.100;6.516;2022-09-09T14:06:21;3.57;;;1.20;;
29958;SDS011;16815;51.100;6.516;2022-09-09T14:08:47;1.13;;;0.80;;
29958;SDS011;16815;51.100;6.516;2022-09-09T14:11:13;3.80;;;0.80;;
29958;SDS011;16815;51.100;6.516;2022-09-09T14:13:39;2.40;;;1.17;;
29958;SDS011;16815;51.100;6.516;2022-09-09T14:16:05;3.90;;;1.20;;
29958;SDS011;16815;51.100;6.516;2022-09-09T14:18:31;1.17;;;0.70;;
29958;SDS011;16815;51.100;6.516;2022-09-09T14:20:58;0.60;;;0.40;;
29958;SDS011;16815;51.100;6.516;2022-09-09T14:23:24;0.53;;;0.30;;
29958;SDS011;16815;51.100;6.516;2022-09-09T14:25:51;0.67;;;0.40;;
29958;SDS011;16815;51.100;6.516;2022-09-09T14:28:17;0.33;;;0.30;;
29958;SDS011;16815;51.100;6.516;2022-09-09T14:30:43;1.37;;;0.33;;
29958;SDS011;16815;51.100;6.516;2022-09-09T14:33:11;1.57;;;0.40;;
29958;SDS011;16815;51.100;6.516;2022-09-09T14:35:37;2.70;;;0.67;;
29958;SDS011;16815;51.100;6.516;2022-09-09T14:38:04;3.03;;;0.60;;
29958;SDS011;16815;51.100;6.516;2022-09-09T14:40:30;3.30;;;0.60;;
29958;SDS011;16815;51.100;6.516;2022-09-09T14:42:56;0.70;;;0.70;;
29958;SDS011;16815;51.100;6.516;2022-09-09T14:45:23;1.87;;;0.63;;
29958;SDS011;16815;51.100;6.516;2022-09-09T14:47:50;2.17;;;0.70;;
29958;SDS011;16815;51.100;6.516;2022-09-09T14:50:16;1.03;;;0.70;;
29958;SDS011;16815;51.100;6.516;2022-09-09T14:52:42;2.43;;;0.93;;
29958;SDS011;16815;51.100;6.516;2022-09-09T14:55:08;2.77;;;0.90;;
29958;SDS011;16815;51.100;6.516;2022-09-09T14:57:34;1.83;;;0.97;;
29958;SDS011;16815;51.100;6.516;2022-09-09T15:00:01;1.93;;;0.90;;
29958;SDS011;16815;51.100;6.516;2022-09-09T15:02:27;1.13;;;0.80;;
29958;SDS011;16815;51.100;6.516;2022-09-09T15:04:54;0.57;;;0.50;;
29958;SDS011;16815;51.100;6.516;2022-09-09T15:07:22;2.73;;;0.73;;
29958;SDS011;16815;51.100;6.516;2022-09-09T15:09:48;10.13;;;1.40;;
29958;SDS011;16815;51.100;6.516;2022-09-09T15:12:20;5.00;;;1.20;;
29958;SDS011;16815;51.100;6.516;2022-09-09T15:14:46;7.73;;;1.10;;
29958;SDS011;16815;51.100;6.516;2022-09-09T15:17:13;5.87;;;1.03;;
29958;SDS011;16815;51.100;6.516;2022-09-09T15:19:39;5.93;;;1.20;;
29958;SDS011;16815;51.100;6.516;2022-09-09T15:22:07;2.33;;;1.10;;
29958;SDS011;16815;51.100;6.516;2022-09-09T15:24:33;5.27;;;1.13;;
29958;SDS011;16815;51.100;6.516;2022-09-09T15:26:59;11.53;;;1.43;;
29958;SDS011;16815;51.100;6.516;2022-09-09T15:29:25;6.53;;;1.30;;
29958;SDS011;16815;51.100;6.516;2022-09-09T15:31:53;2.90;;;0.93;;
29958;SDS011;16815;51.100;6.516;2022-09-09T15:34:19;3.77;;;1.40;;
29958;SDS011;16815;51.100;6.516;2022-09-09T15:36:45;6.23;;;1.87;;
29958;SDS011;16815;51.100;6.516;2022-09-09T15:39:12;4.23;;;1.60;;
29958;SDS011;16815;51.100;6.516;2022-09-09T15:41:40;6.00;;;1.60;;
29958;SDS011;16815;51.100;6.516;2022-09-09T15:44:07;5.10;;;1.70;;
29958;SDS011;16815;51.100;6.516;2022-09-09T15:46:36;4.87;;;1.67;;
29958;SDS011;16815;51.100;6.516;2022-09-09T15:49:04;7.57;;;1.83;;
29958;SDS011;16815;51.100;6.516;2022-09-09T15:51:30;5.03;;;1.60;;
29958;SDS011;16815;51.100;6.516;2022-09-09T15:53:57;5.97;;;2.10;;
29958;SDS011;16815;51.100;6.516;2022-09-09T15:56:26;3.70;;;1.97;;
29958;SDS011;16815;51.100;6.516;2022-09-09T15:58:53;3.37;;;1.60;;
29958;SDS011;16815;51.100;6.516;2022-09-09T16:01:19;3.93;;;1.20;;
29958;SDS011;16815;51.100;6.516;2022-09-09T16:03:45;2.17;;;1.10;;
29958;SDS011;16815;51.100;6.516;2022-09-09T16:06:11;2.23;;;1.10;;
29958;SDS011;16815;51.100;6.516;2022-09-09T16:08:39;1.50;;;0.90;;
29958;SDS011;16815;51.100;6.516;2022-09-09T16:11:08;3.87;;;1.10;;
29958;SDS011;16815;51.100;6.516;2022-09-09T16:13:35;6.33;;;1.43;;
29958;SDS011;16815;51.100;6.516;2022-09-09T16:16:02;2.43;;;1.10;;
29958;SDS011;16815;51.100;6.516;2022-09-09T16:18:33;4.77;;;1.40;;
29958;SDS011;16815;51.100;6.516;2022-09-09T16:20:59;5.20;;;2.07;;
29958;SDS011;16815;51.100;6.516;2022-09-09T16:23:25;1.70;;;1.10;;
29958;SDS011;16815;51.100;6.516;2022-09-09T16:25:54;2.67;;;1.20;;
29958;SDS011;16815;51.100;6.516;2022-09-09T16:28:20;5.43;;;1.37;;
29958;SDS011;16815;51.100;6.516;2022-09-09T16:30:47;2.23;;;1.30;;
29958;SDS011;16815;51.100;6.516;2022-09-09T16:33:13;5.07;;;1.10;;
29958;SDS011;16815;51.100;6.516;2022-09-09T16:35:42;3.23;;;1.63;;